Flight Track Log - Related Links

Times and Time Zones

All times are in EDT time to prevent confusion due to time zone crossing. See the OPT332 flight status page for this flight to view local times or setup timezone preferences in your user account.

Time Position Orientation Groundspeed Altitude Reporting Facility
EDT Latitude Longitude Course Direction KTS MPH feet Rate Location/Type
Mon 03:42:50 PM 41.7856 -122.4111 122° Southeast 253 291 6,000  Level Oakland Center
Mon 03:43:00 PM 41.7533 -121.6480 120° Southeast  Level Estimated
Mon 03:43:55 PM 41.7575 -122.3319 115° Southeast 237 273 9,200  Level Seattle Center
Mon 03:44:00 PM 41.7481 -121.5114 118° Southeast  Level Estimated
Mon 03:44:57 PM 41.7219 -122.2453 119° Southeast 265 305 12,000  Level Seattle Center
Mon 03:45:00 PM 41.7427 -121.3748 116° Southeast  Level Estimated
Mon 03:45:58 PM 41.6969 -122.1442 108° East 290 334 14,800  Level Seattle Center
Mon 03:46:00 PM 41.6612 -121.2925 143° Southeast  Level FlightAware Approximate
Mon 03:46:59 PM 41.6722 -122.0133 104° East 302 348 18,100  Level Seattle Center
Mon 03:47:00 PM 41.6562 -121.1561 120° Southeast  Level Estimated
Mon 03:48:00 PM 41.6510 -121.0196 122° Southeast  Level Estimated
Mon 03:48:00 PM 41.6511 -121.9039 104° East 305 351 21,000  Level Seattle Center
Mon 03:49:01 PM 41.6289 -121.7931 105° East 309 356 23,700 2,311 Climbing Seattle Center
Mon 03:50:02 PM 41.6078 -121.6819 104° East 312 359 25,700 1,756 Climbing Seattle Center
Mon 03:51:04 PM 41.5839 -121.5583 104° East 341 392 27,300 1,512 Climbing Seattle Center
Mon 03:52:05 PM 41.5578 -121.4261 105° East 367 422 28,800 1,623 Climbing Seattle Center
Mon 03:53:06 PM 41.5308 -121.2892 105° East 382 440 30,600 1,820 Climbing Seattle Center
Mon 03:54:07 PM 41.5031 -121.1500 105° East 389 448 32,500 1,268 Climbing Seattle Center
Mon 03:55:09 PM 41.4750 -121.0069 105° East 400 460 33,200 1,463 Climbing Seattle Center
Mon 03:56:10 PM 41.4353 -120.8242 106° East 423 487 35,500 1,869 Climbing Seattle Center
Mon 03:57:11 PM 41.4092 -120.6789 103° East 411 473 37,000 1,377 Climbing Seattle Center
Mon 03:58:12 PM 41.3786 -120.5283 105° East 417 480 38,300 2,016 Climbing Seattle Center
Mon 03:59:13 PM 41.3508 -120.3967 106° East 378 435 41,100 1,967 Climbing Seattle Center
Mon 04:00:14 PM 41.3256 -120.2742 105° East 350 403 42,300 878 Climbing Seattle Center
Mon 04:01:16 PM 41.2989 -120.1489 106° East 351 404 42,900 537 Climbing Seattle Center
Mon 04:02:17 PM 41.2719 -120.0183 105° East 364 419 43,400 492 Climbing Seattle Center
Mon 04:03:18 PM 41.2444 -119.8844 105° East 375 432 43,900 492 Climbing Seattle Center
Mon 04:04:19 PM 41.2261 -119.7458 100° East 381 438 44,400 492 Climbing Seattle Center
Mon 04:05:20 PM 41.2164 -119.6056 95° East 382 440 44,900 295 Climbing Seattle Center
Mon 04:06:21 PM 41.2053 -119.4317 95° East 393 452 45,000 49 Climbing Seattle Center
Mon 04:07:22 PM 41.1983 -119.2869 94° East 402 463 45,000  Level Seattle Center
Mon 04:08:24 PM 41.1892 -119.1483 95° East 396 456 45,000  Level Seattle Center
Mon 04:09:25 PM 41.1786 -118.9856 95° East 396 456 45,000  Level Seattle Center
Mon 04:10:26 PM 41.1703 -118.8475 95° East 393 452 45,000  Level Seattle Center
Mon 04:11:27 PM 41.1597 -118.7083 96° East 393 452 45,000  Level Seattle Center
Mon 04:12:28 PM 41.1494 -118.5461 95° East 394 453 45,000  Level Seattle Center
Mon 04:13:29 PM 41.1406 -118.4067 95° East 396 456 45,000  Level Seattle Center
Mon 04:14:30 PM 41.1303 -118.2681 96° East 395 455 45,000  Level Seattle Center
Mon 04:15:31 PM 41.1197 -118.1056 95° East 396 456 45,000  Level Seattle Center
Mon 04:16:48 PM 41.1061 -117.9183 95° East 397 457 45,000  Level Salt Lake Center
Mon 04:17:49 PM 41.0967 -117.7789 95° East 396 456 45,000  Level Salt Lake Center
Mon 04:18:51 PM 41.0839 -117.6150 96° East 398 458 45,000  Level Salt Lake Center
Mon 04:19:53 PM 41.0733 -117.4756 96° East 397 457 45,000  Level Salt Lake Center
Mon 04:20:55 PM 41.0611 -117.3342 96° East 401 461 45,000  Level Salt Lake Center
Mon 04:26:44 PM 40.9952 -116.5150 96° East 400 460 45,000  Level FlightAware ADS-B
Mon 04:27:20 PM 40.9927 -116.4860 97° East 401 461 45,000  Level FlightAware ADS-B
Mon 04:28:10 PM 40.9766 -116.3000 96° East 401 461 45,000  Level FlightAware ADS-B
Mon 04:28:52 PM 40.9749 -116.2800 96° East 400 460 45,000  Level FlightAware ADS-B
Mon 04:29:28 PM 40.9738 -116.2680 97° East 400 460 45,000  Level FlightAware ADS-B
Mon 04:31:08 PM 40.9340 -115.8220 97° East 400 460 45,000  Level FlightAware ADS-B
Mon 04:31:39 PM 40.9291 -115.7690 97° East 400 460 45,000  Level FlightAware ADS-B
Mon 04:32:12 PM 40.9193 -115.6620 97° East 401 461 45,000  Level FlightAware ADS-B
Mon 04:32:47 PM 40.9171 -115.6380 97° East 400 460 45,000  Level FlightAware ADS-B
Mon 04:33:18 PM 40.9047 -115.5060 97° East 400 460 45,000  Level FlightAware ADS-B
Mon 04:35:08 PM 40.8788 -115.2350 97° East 402 463 45,000  Level FlightAware ADS-B
Mon 04:35:44 PM 40.8745 -115.1910 97° East 403 464 45,000  Level FlightAware ADS-B
Mon 04:36:27 PM 40.8652 -115.0950 97° East 403 464 45,000  Level FlightAware ADS-B
Mon 04:37:00 PM 40.8546 -114.9870 97° East 403 464 45,000  Level FlightAware ADS-B
Mon 04:37:16 PM 40.8533 -114.9740 98° East 403 464 45,000  Level FlightAware ADS-B
Mon 04:37:59 PM 40.8517 -114.9580 98° East 403 464 45,000  Level FlightAware ADS-B
Mon 04:38:22 PM 40.8404 -114.8450 97° East 403 464 45,000  Level FlightAware ADS-B
Mon 04:39:22 PM 40.8224 -114.6670 98° East 403 464 45,000  Level FlightAware ADS-B
Mon 04:39:52 PM 40.8100 -114.5460 98° East 402 463 45,000  Level FlightAware ADS-B
Mon 04:40:27 PM 40.8067 -114.5130 98° East 402 463 45,000  Level FlightAware ADS-B
Mon 04:40:57 PM 40.7936 -114.3880 98° East 402 463 45,000  Level FlightAware ADS-B
Mon 04:41:27 PM 40.7883 -114.3370 98° East 402 463 45,000  Level FlightAware ADS-B
Mon 04:41:59 PM 40.7868 -114.3230 98° East 402 463 45,000  Level FlightAware ADS-B
Mon 04:42:39 PM 40.7857 -114.3120 98° East 402 463 45,000  Level FlightAware ADS-B
Mon 04:43:15 PM 40.7613 -114.0820 98° East 402 463 45,000  Level FlightAware ADS-B
Mon 04:43:51 PM 40.7510 -113.9870 98° East 402 463 45,000  Level FlightAware ADS-B
Mon 04:44:21 PM 40.7405 -113.8890 98° East 401 461 45,000  Level FlightAware ADS-B
Mon 04:44:52 PM 40.7324 -113.8150 98° East 402 463 45,000  Level FlightAware ADS-B
Mon 04:45:15 PM 40.7272 -113.7590 97° East 404 465 45,000  Level FlightAware ADS-B
Mon 04:45:23 PM 40.7272 -113.7380 90° East 405 466 45,000  Level FlightAware ADS-B
Mon 04:45:28 PM 40.7281 -113.7250 85° East 407 468 45,000  Level FlightAware ADS-B
Mon 04:46:22 PM 40.7388 -113.5960 84° East 406 467 45,000  Level FlightAware ADS-B
Mon 04:46:52 PM 40.7438 -113.5290 84° East 406 467 45,000  Level FlightAware ADS-B
Mon 04:47:31 PM 40.7457 -113.5010 85° East 407 468 45,000  Level FlightAware ADS-B
Mon 04:48:03 PM 40.7570 -113.3500 84° East 407 468 45,000  Level FlightAware ADS-B
Mon 04:48:35 PM 40.7627 -113.2720 84° East 407 468 45,000  Level FlightAware ADS-B
Mon 04:49:06 PM 40.7683 -113.1960 84° East 408 470 45,000  Level FlightAware ADS-B
Mon 04:49:45 PM 40.7738 -113.1200 85° East 409 471 45,000  Level FlightAware ADS-B
Mon 04:50:20 PM 40.7752 -113.1010 84° East 409 471 45,000  Level FlightAware ADS-B
Mon 04:50:50 PM 40.7871 -112.9340 85° East 408 470 45,000  Level FlightAware ADS-B
Mon 04:51:23 PM 40.7930 -112.8500 85° East 409 471 45,000  Level FlightAware ADS-B
Mon 04:51:54 PM 40.7982 -112.7750 85° East 408 470 45,000  Level FlightAware ADS-B
Mon 04:52:25 PM 40.8032 -112.7030 85° East 408 470 45,000  Level FlightAware ADS-B
Mon 04:53:02 PM 40.8078 -112.6350 85° East 408 470 45,000  Level FlightAware ADS-B
Mon 04:53:33 PM 40.8147 -112.5320 85° East 409 471 45,000  Level FlightAware ADS-B
Mon 04:53:51 PM 40.8160 -112.5130 85° East 409 471 45,000  Level FlightAware ADS-B
Mon 04:53:58 PM 40.8180 -112.4840 85° East 409 471 45,000  Level FlightAware ADS-B
Mon 04:54:31 PM 40.8240 -112.3930 85° East 409 471 45,000  Level FlightAware ADS-B
Mon 04:55:01 PM 40.8290 -112.3150 85° East 408 470 45,000  Level FlightAware ADS-B
Mon 04:55:31 PM 40.8339 -112.2400 85° East 408 470 45,000  Level FlightAware ADS-B
Mon 04:56:01 PM 40.8386 -112.1670 85° East 408 470 45,000  Level FlightAware ADS-B
Mon 04:56:32 PM 40.8436 -112.0880 85° East 409 471 45,000  Level FlightAware ADS-B
Mon 04:57:02 PM 40.8485 -112.0100 85° East 409 471 45,000  Level FlightAware ADS-B
Mon 04:57:16 PM 40.8498 -111.9780 87° East 408 470 45,000  Level FlightAware ADS-B
Mon 04:57:25 PM 40.8494 -111.9570 91° East 406 467 45,000  Level FlightAware ADS-B
Mon 04:57:56 PM 40.8449 -111.8790 94° East 406 467 45,000  Level FlightAware ADS-B
Mon 04:58:26 PM 40.8410 -111.8030 94° East 407 468 45,000  Level FlightAware ADS-B
Mon 04:58:57 PM 40.8372 -111.7280 94° East 408 470 45,000  Level FlightAware ADS-B
Mon 04:59:28 PM 40.8335 -111.6560 94° East 408 470 45,000  Level FlightAware ADS-B
Mon 04:59:59 PM 40.8291 -111.5740 94° East 408 470 45,000  Level FlightAware ADS-B
Mon 05:00:29 PM 40.8250 -111.4970 94° East 409 471 45,000  Level FlightAware ADS-B
Mon 05:01:00 PM 40.8209 -111.4220 94° East 409 471 45,000  Level FlightAware ADS-B
Mon 05:01:33 PM 40.8164 -111.3400 94° East 411 473 45,000  Level FlightAware ADS-B
Mon 05:02:03 PM 40.8120 -111.2630 94° East 411 473 45,000  Level FlightAware ADS-B
Mon 05:02:33 PM 40.8079 -111.1910 94° East 411 473 45,000  Level FlightAware ADS-B
Mon 05:03:06 PM 40.8033 -111.1100 94° East 412 474 45,000  Level FlightAware ADS-B
Mon 05:03:37 PM 40.7988 -111.0330 94° East 412 474 45,000  Level FlightAware ADS-B
Mon 05:04:08 PM 40.7940 -110.9510 94° East 412 474 45,000  Level FlightAware ADS-B
Mon 05:04:43 PM 40.7888 -110.8640 94° East 412 474 45,000  Level FlightAware ADS-B
Mon 05:05:15 PM 40.7841 -110.7850 94° East 412 474 45,000  Level FlightAware ADS-B
Mon 05:05:48 PM 40.7790 -110.7010 95° East 413 475 45,000  Level FlightAware ADS-B
Mon 05:06:28 PM 40.7728 -110.6020 95° East 413 475 45,000  Level FlightAware ADS-B
Mon 05:06:58 PM 40.7680 -110.5250 95° East 413 475 45,000  Level FlightAware ADS-B
Mon 05:07:29 PM 40.7636 -110.4540 95° East 413 475 45,000  Level FlightAware ADS-B
Mon 05:08:02 PM 40.7582 -110.3700 95° East 414 476 45,000  Level FlightAware ADS-B
Mon 05:08:33 PM 40.7531 -110.2910 95° East 414 476 45,000  Level FlightAware ADS-B
Mon 05:09:07 PM 40.7477 -110.2090 95° East 414 476 45,000  Level FlightAware ADS-B
Mon 05:09:37 PM 40.7428 -110.1340 95° East 414 476 45,000  Level FlightAware ADS-B
Mon 05:10:12 PM 40.7380 -110.0610 95° East 415 478 45,000  Level FlightAware ADS-B
Mon 05:10:43 PM 40.7313 -109.9600 95° East 415 478 45,000  Level FlightAware ADS-B
Mon 05:11:13 PM 40.7263 -109.8870 95° East 415 478 45,000  Level FlightAware ADS-B
Mon 05:11:59 PM 40.7192 -109.7872 95° East 413 475 45,000  Level Denver Center
Mon 05:13:01 PM 40.7067 -109.6186 96° East 414 476 45,000  Level Denver Center
Mon 05:14:03 PM 40.6964 -109.4686 95° East 413 475 45,000  Level Denver Center
Mon 05:15:05 PM 40.6858 -109.3225 95° East 418 481 45,000  Level Denver Center
Mon 05:16:07 PM 40.6733 -109.1531 96° East 416 479 45,000  Level Denver Center
Mon 05:17:09 PM 40.6625 -109.0092 96° East 414 476 45,000  Level Denver Center
Mon 05:18:11 PM 40.6522 -108.8633 95° East 415 478 45,000  Level Denver Center
Mon 05:19:13 PM 40.6383 -108.6928 96° East 419 482 45,000  Level Denver Center
Mon 05:20:15 PM 40.6269 -108.5475 96° East 416 479 45,000  Level Denver Center
Mon 05:21:17 PM 40.6128 -108.3783 96° East 417 480 45,000  Level Denver Center
Mon 05:22:19 PM 40.6011 -108.2333 96° East 416 479 45,000  Level Denver Center
Mon 05:23:21 PM 40.5872 -108.0658 96° East 413 475 45,000  Level Denver Center
Mon 05:24:23 PM 40.5928 -107.9192 87° East 424 488 45,000  Level Denver Center
Mon 05:25:26 PM 40.6478 -107.7622 65° Northeast 422 486 45,000  Level Denver Center
Mon 05:26:28 PM 40.6961 -107.6258 65° Northeast 427 491 45,000  Level Denver Center
Mon 05:27:30 PM 40.7489 -107.4733 65° Northeast 425 489 45,000  Level Denver Center
Mon 05:28:32 PM 40.7994 -107.3275 65° Northeast 424 488 45,000  Level Denver Center
Mon 05:29:34 PM 40.8461 -107.1906 66° East 427 491 45,000  Level Denver Center
Mon 05:30:36 PM 40.9003 -107.0336 65° Northeast 423 487 45,000  Level Denver Center
Mon 05:31:38 PM 40.9467 -106.8958 66° East 427 491 45,000  Level Denver Center
Mon 05:32:40 PM 41.0011 -106.7381 65° Northeast 424 488 45,000  Level Denver Center
Mon 05:33:42 PM 41.0469 -106.6014 66° East 424 488 45,000  Level Denver Center
Mon 05:34:44 PM 41.1094 -106.4464 62° Northeast 426 490 45,000  Level Denver Center
Mon 05:35:46 PM 41.1517 -106.3083 68° East 424 488 45,000  Level Denver Center
Mon 05:36:48 PM 41.2000 -106.1578 67° East 427 491 45,000  Level Denver Center
Mon 05:37:50 PM 41.2517 -105.9956 67° East 427 491 45,000  Level Denver Center
Mon 05:38:52 PM 41.2950 -105.8589 67° East 423 487 45,000  Level Denver Center
Mon 05:39:54 PM 41.3447 -105.6967 68° East 424 488 45,000  Level Denver Center
Mon 05:40:56 PM 41.3811 -105.5542 71° East 424 488 45,000  Level Denver Center
Mon 05:41:58 PM 41.4239 -105.3883 71° East 425 489 45,000  Level Denver Center
Mon 05:43:00 PM 41.4603 -105.2456 71° East 427 491 45,000 -387 Level Denver Center
Mon 05:44:02 PM 41.4967 -105.1028 71° East 427 491 44,200 -1,403 Descending Denver Center
Mon 05:45:04 PM 41.5383 -104.9350 72° East 426 490 42,100 -1,887 Descending Denver Center
Mon 05:46:06 PM 41.5744 -104.7936 71° East 424 488 40,300 -1,887 Descending Denver Center
Mon 05:47:08 PM 41.6150 -104.6275 72° East 422 486 38,200 -2,177 Descending Denver Center
Mon 05:48:10 PM 41.6503 -104.4853 72° East 423 487 35,800 -2,710 Descending Denver Center
Mon 05:49:12 PM 41.6817 -104.3100 76° East 440 506 32,600 -2,323 Descending Denver Center
Mon 05:50:14 PM 41.6225 -104.1917 124° Southeast 412 474 31,000 -774 Descending Denver Center
Mon 05:51:16 PM 41.5311 -104.0986 143° Southeast 373 429 31,000  Level Denver Center
Mon 05:52:19 PM 41.4522 -104.0217 144° Southeast 367 422 31,000  Level Denver Center
Mon 05:53:21 PM 41.3583 -103.9300 144° Southeast 373 429 31,000  Level Denver Center
Mon 05:54:23 PM 41.2764 -103.8508 144° Southeast 379 436 31,000  Level Denver Center
Mon 05:55:25 PM 41.1819 -103.7569 143° Southeast 381 438 31,000  Level Denver Center
Mon 05:56:27 PM 41.0994 -103.6769 144° Southeast 384 442 31,000  Level Denver Center
Mon 05:57:29 PM 41.0033 -103.5833 144° Southeast 384 442 31,000 -529 Level Denver Center
Mon 05:58:43 PM 40.9039 -103.5500 166° South 372 428 29,800 -1,721 Descending Denver Center
Mon 05:59:45 PM 40.8036 -103.6192 208° Southwest 340 391 27,100 -2,160 Descending Denver Center
Mon 06:00:48 PM 40.7242 -103.6739 208° Southwest 325 374 25,300 -1,536 Descending Denver Center
Mon 06:01:50 PM 40.6375 -103.7319 207° Southwest 346 398 23,900 -1,694 Descending Denver Center
Mon 06:02:52 PM 40.5556 -103.7889 208° Southwest 336 387 21,800 -1,676 Descending Denver Center
Mon 06:04:06 PM 40.4711 -103.8481 208° Southwest 343 395 20,100 -1,941 Descending Denver Center
Mon 06:05:08 PM 40.3811 -103.9728 227° Southwest 333 383 17,400 -1,306 Descending Denver Center
Mon 06:06:10 PM 40.3581 -104.0878 255° West 333 383 17,400 -532 Level Denver Center
Mon 06:07:12 PM 40.3481 -104.2122 264° West 323 372 16,300 -1,355 Descending Denver Center
Mon 06:08:14 PM 40.3514 -104.3189 272° West 293 337 14,600 -1,104 Descending Denver Center
Mon 06:09:17 PM 40.3522 -104.4211 271° West 267 307 14,000 -1,488 Descending Denver Center
Mon 06:10:19 PM 40.3383 -104.5178 259° West 271 312 11,500 -2,177 Descending Denver Center
Mon 06:11:21 PM 40.3183 -104.6233 256° West 277 319 9,500 -1,210 Descending Denver Center
Mon 06:12:23 PM 40.3019 -104.7150 257° West 264 304 9,000 -242 Descending Denver Center
Mon 06:13:25 PM 40.2844 -104.8142 257° West 260 299 9,000  Level Denver Center
Mon 06:14:27 PM 40.2536 -104.8958 244° Southwest 257 296 9,000  Level Denver Center
Mon 06:15:29 PM 40.2067 -104.9653 228° Southwest 256 295 9,000  Level Denver Center
Mon 06:16:31 PM 40.1344 -105.0061 203° Southwest 259 298 9,000 -48 Level Denver Center
Mon 06:17:33 PM 40.0681 -105.0458 205° Southwest 261 300 8,900 -48 Descending Denver Center
Mon 06:18:35 PM 40.0000 -105.0864 205° Southwest 251 289 8,900  Level Denver Center
Mon 06:19:37 PM 39.9356 -105.1181 201° Southwest 249 287 8,900 -435 Level Denver Center
Mon 06:20:39 PM 39.8856 -105.0819 151° Southeast 211 243 8,000 -968 Descending Denver Center
Mon 06:21:41 PM 39.8650 -105.0631 145° Southeast 173 199 6,900 -1,113 Descending Denver Center
Mon 06:22:43 PM 39.8975 -105.0925 325° Northwest 144 166 5,700 -624 Descending Denver Center
Mon 06:23:46 PM 39.9081 -105.1114 306° West 88 101 5,600 -95 Descending Denver Center

Login

Don't have an account? Register now (free) for customized features, flight alerts, and more!